createdAt,value
2023-03-02T00:01:05.647Z,21.40
2023-03-02T00:03:32.988Z,20.00
2023-03-02T00:06:00.696Z,24.30
2023-03-02T00:08:28.285Z,23.50
2023-03-02T00:10:57.328Z,29.50
2023-03-02T00:13:24.190Z,26.00
2023-03-02T00:15:51.787Z,36.40
2023-03-02T00:18:18.614Z,40.60
2023-03-02T00:20:45.251Z,38.60
2023-03-02T00:23:13.185Z,36.90
2023-03-02T00:25:39.963Z,36.20
2023-03-02T00:28:06.751Z,39.20
2023-03-02T00:30:34.568Z,36.60
2023-03-02T00:33:01.305Z,35.20
2023-03-02T00:35:28.319Z,32.10
2023-03-02T00:37:55.517Z,36.20
2023-03-02T00:40:22.691Z,37.60
2023-03-02T00:42:49.355Z,38.10
2023-03-02T00:45:16.619Z,37.60
2023-03-02T00:47:43.917Z,36.20
2023-03-02T00:50:11.179Z,35.80
2023-03-02T00:52:37.987Z,33.20
2023-03-02T00:55:05.852Z,34.50
2023-03-02T00:57:32.636Z,32.80
2023-03-02T01:00:01.870Z,33.80
2023-03-02T01:02:43.445Z,38.40
2023-03-02T01:05:12.211Z,34.00
2023-03-02T01:07:38.791Z,33.90
2023-03-02T01:10:06.198Z,38.50
2023-03-02T01:12:33.305Z,42.30
2023-03-02T01:14:59.956Z,40.10
2023-03-02T01:17:27.076Z,38.60
2023-03-02T01:19:55.816Z,41.00
2023-03-02T01:22:22.946Z,37.20
2023-03-02T01:24:49.951Z,36.80
2023-03-02T01:27:16.824Z,35.20
2023-03-02T01:29:43.524Z,34.70
2023-03-02T01:32:10.418Z,33.90
2023-03-02T01:34:37.968Z,33.60
2023-03-02T01:37:05.285Z,34.70
2023-03-02T01:39:31.956Z,33.00
2023-03-02T01:41:58.558Z,31.60
2023-03-02T01:44:50.947Z,28.20
2023-03-02T01:47:28.188Z,26.00
2023-03-02T01:50:24.220Z,28.10
2023-03-02T01:52:55.212Z,27.20
2023-03-02T01:55:25.426Z,25.40
2023-03-02T01:57:54.452Z,25.00
2023-03-02T02:00:26.723Z,23.40
2023-03-02T02:03:08.063Z,23.30
2023-03-02T02:05:38.534Z,21.60
2023-03-02T02:08:07.096Z,22.00
2023-03-02T02:10:34.949Z,21.30
2023-03-02T02:13:02.330Z,24.30
2023-03-02T02:15:29.368Z,25.00
2023-03-02T02:17:56.058Z,23.30
2023-03-02T02:20:39.208Z,22.50
2023-03-02T02:23:43.565Z,21.10
2023-03-02T02:26:28.257Z,27.70
2023-03-02T02:29:07.301Z,24.70
2023-03-02T02:31:45.874Z,27.10
2023-03-02T02:34:28.453Z,25.90
2023-03-02T02:37:02.627Z,26.60
2023-03-02T02:39:36.874Z,31.80
2023-03-02T02:42:12.152Z,36.30
2023-03-02T02:44:39.523Z,49.00
2023-03-02T02:47:18.026Z,60.60
2023-03-02T02:49:47.542Z,48.80
2023-03-02T02:52:17.356Z,40.40
2023-03-02T02:54:48.316Z,31.10
2023-03-02T02:57:17.761Z,28.90
2023-03-02T02:59:50.768Z,26.20
2023-03-02T03:02:28.465Z,25.70
2023-03-02T03:05:03.135Z,27.70
2023-03-02T03:07:32.149Z,26.20
2023-03-02T03:10:22.236Z,23.40
2023-03-02T03:12:50.249Z,24.30
2023-03-02T03:17:54.555Z,21.90
2023-03-02T03:20:22.451Z,23.40
2023-03-02T03:22:49.204Z,22.40
2023-03-02T03:25:16.637Z,21.20
2023-03-02T03:27:46.503Z,19.60
2023-03-02T03:30:14.909Z,18.90
2023-03-02T03:32:42.649Z,17.30
2023-03-02T03:35:12.095Z,18.00
2023-03-02T03:37:41.025Z,19.00
2023-03-02T03:40:09.496Z,20.60
2023-03-02T03:42:37.675Z,19.20
2023-03-02T03:45:06.336Z,19.20
2023-03-02T03:47:39.459Z,20.20
2023-03-02T03:50:17.232Z,20.90
2023-03-02T03:52:44.279Z,19.00
2023-03-02T03:55:16.525Z,21.60
2023-03-02T03:57:44.010Z,21.90
2023-03-02T04:00:14.627Z,20.70
2023-03-02T04:02:45.836Z,21.20
2023-03-02T04:05:13.173Z,20.30
2023-03-02T04:07:40.874Z,20.30
2023-03-02T04:10:09.566Z,20.10
2023-03-02T04:12:41.337Z,17.90
2023-03-02T04:15:12.996Z,18.10
2023-03-02T04:17:39.782Z,19.40
2023-03-02T04:20:08.624Z,16.60
2023-03-02T04:22:38.872Z,16.00
2023-03-02T04:25:06.972Z,16.30
2023-03-02T04:27:33.638Z,15.20
2023-03-02T04:30:00.282Z,16.60
2023-03-02T04:32:27.128Z,13.50
2023-03-02T04:34:55.613Z,15.40
2023-03-02T04:37:22.909Z,14.60
2023-03-02T04:39:50.997Z,15.10
2023-03-02T04:42:21.318Z,14.40
2023-03-02T04:44:48.626Z,13.60
2023-03-02T04:47:15.438Z,14.30
2023-03-02T04:49:44.703Z,15.20
2023-03-02T04:52:11.395Z,14.80
2023-03-02T04:54:38.244Z,15.90
2023-03-02T04:57:07.894Z,14.60
2023-03-02T04:59:41.573Z,16.70
2023-03-02T05:02:10.728Z,15.00
2023-03-02T05:04:39.694Z,16.00
2023-03-02T05:07:06.438Z,14.70
2023-03-02T05:09:33.230Z,13.30
2023-03-02T05:12:00.913Z,15.90
2023-03-02T05:14:29.013Z,15.40
2023-03-02T05:16:56.367Z,15.80
2023-03-02T05:19:24.845Z,17.20
2023-03-02T05:21:51.594Z,17.30
2023-03-02T05:24:18.578Z,16.70
2023-03-02T05:26:45.274Z,17.10
2023-03-02T05:29:14.582Z,17.70
2023-03-02T05:31:45.184Z,19.20
2023-03-02T05:34:15.590Z,18.20
2023-03-02T05:36:43.058Z,22.40
2023-03-02T05:39:10.528Z,20.60
2023-03-02T05:41:37.750Z,20.60
2023-03-02T05:44:08.877Z,19.60
2023-03-02T05:46:36.306Z,20.30
2023-03-02T05:49:03.735Z,20.20
2023-03-02T05:51:30.351Z,21.30
2023-03-02T05:53:57.022Z,18.40
2023-03-02T05:56:23.692Z,17.40
2023-03-02T05:58:50.455Z,17.10
2023-03-02T06:01:17.056Z,18.40
2023-03-02T06:03:43.644Z,19.10
2023-03-02T06:06:14.603Z,17.20
2023-03-02T06:08:42.639Z,17.30
2023-03-02T06:11:11.389Z,15.50
2023-03-02T06:13:39.928Z,15.50
2023-03-02T06:16:07.562Z,15.00
2023-03-02T06:18:34.630Z,16.20
2023-03-02T06:21:05.141Z,14.80
2023-03-02T06:23:40.088Z,15.60
2023-03-02T06:26:10.094Z,15.40
2023-03-02T06:28:49.737Z,15.50
2023-03-02T06:31:22.276Z,15.60
2023-03-02T06:33:49.171Z,17.80
2023-03-02T06:36:17.648Z,15.60
2023-03-02T06:38:45.741Z,15.90
2023-03-02T06:41:12.747Z,15.40
2023-03-02T06:43:39.478Z,14.90
2023-03-02T06:46:06.379Z,15.90
2023-03-02T06:48:33.198Z,19.40
2023-03-02T06:50:59.930Z,16.80
2023-03-02T06:53:26.794Z,16.20
2023-03-02T06:55:53.505Z,16.30
2023-03-02T06:58:20.336Z,16.30
2023-03-02T07:00:46.980Z,15.30
2023-03-02T07:03:13.636Z,15.90
2023-03-02T07:05:40.458Z,15.20
2023-03-02T07:08:07.118Z,16.00
2023-03-02T07:10:33.830Z,16.10
2023-03-02T07:13:00.688Z,16.90
2023-03-02T07:15:27.521Z,15.70
2023-03-02T07:17:54.222Z,15.20
2023-03-02T07:20:20.982Z,15.70
2023-03-02T07:22:54.996Z,17.20
2023-03-02T07:25:24.267Z,16.70
2023-03-02T07:27:51.179Z,16.50
2023-03-02T07:30:20.690Z,16.30
2023-03-02T07:32:48.218Z,17.30
2023-03-02T07:35:16.508Z,16.10
2023-03-02T07:37:43.983Z,15.90
2023-03-02T07:40:11.911Z,16.90
2023-03-02T07:42:38.811Z,18.20
2023-03-02T07:45:06.475Z,18.90
2023-03-02T07:47:35.796Z,19.50
2023-03-02T07:50:03.679Z,22.00
2023-03-02T07:52:30.687Z,22.70
2023-03-02T07:55:00.041Z,20.00
2023-03-02T07:57:26.879Z,21.40
2023-03-02T07:59:53.915Z,19.60
2023-03-02T08:02:21.023Z,19.90
2023-03-02T08:04:47.751Z,21.50
2023-03-02T08:07:14.494Z,24.20
2023-03-02T08:09:42.595Z,23.60
2023-03-02T08:12:11.769Z,23.70
2023-03-02T08:14:39.223Z,21.60
2023-03-02T08:17:06.521Z,22.20
2023-03-02T08:19:35.988Z,21.00
2023-03-02T08:22:02.742Z,26.80
2023-03-02T08:24:29.584Z,22.00
2023-03-02T08:27:00.947Z,22.20
2023-03-02T08:29:30.444Z,20.30
2023-03-02T08:31:58.419Z,16.30
2023-03-02T08:34:26.266Z,15.30
2023-03-02T08:36:53.581Z,15.60
2023-03-02T08:39:23.377Z,14.50
2023-03-02T08:44:21.997Z,13.30
2023-03-02T08:46:51.242Z,19.80
2023-03-02T08:49:20.328Z,13.20
2023-03-02T08:51:52.844Z,13.40
2023-03-02T08:54:20.263Z,13.90
2023-03-02T08:56:48.344Z,13.00
2023-03-02T08:59:15.896Z,14.10
2023-03-02T09:01:42.892Z,12.90
2023-03-02T09:04:10.872Z,14.50
2023-03-02T09:06:41.990Z,13.40
2023-03-02T09:09:10.604Z,11.90
2023-03-02T09:11:37.973Z,11.50
2023-03-02T09:14:04.862Z,11.70
2023-03-02T09:16:31.688Z,12.40
2023-03-02T09:18:58.618Z,12.60
2023-03-02T09:21:25.882Z,11.00
2023-03-02T09:23:57.382Z,11.50
2023-03-02T09:26:26.390Z,10.90
2023-03-02T09:28:53.512Z,11.70
2023-03-02T09:31:20.667Z,11.50
2023-03-02T09:33:47.594Z,11.90
2023-03-02T09:36:23.881Z,12.20
2023-03-02T09:38:51.279Z,12.50
2023-03-02T09:41:20.634Z,13.40
2023-03-02T09:44:29.639Z,12.70
2023-03-02T09:47:36.128Z,10.10
2023-03-02T09:50:33.979Z,12.10
2023-03-02T09:53:19.632Z,10.00
2023-03-02T09:55:52.935Z,10.10
2023-03-02T09:58:22.544Z,23.70
2023-03-02T10:00:51.363Z,21.80
2023-03-02T10:03:30.892Z,24.10
2023-03-02T10:05:58.337Z,11.80
2023-03-02T10:08:32.699Z,14.20
2023-03-02T10:11:27.129Z,13.90
2023-03-02T10:14:13.191Z,16.00
2023-03-02T10:17:04.858Z,14.50
2023-03-02T10:19:47.115Z,12.50
2023-03-02T10:22:26.610Z,13.80
2023-03-02T10:25:35.425Z,15.70
2023-03-02T10:28:21.915Z,17.70
2023-03-02T10:30:58.248Z,17.80
2023-03-02T10:33:27.094Z,16.40
2023-03-02T10:35:54.022Z,15.80
2023-03-02T10:38:50.833Z,20.60
2023-03-02T10:41:42.508Z,13.20
2023-03-02T10:44:21.109Z,13.40
2023-03-02T10:46:47.796Z,12.40
2023-03-02T10:49:35.938Z,11.60
2023-03-02T10:52:05.892Z,13.20
2023-03-02T10:54:34.757Z,14.70
2023-03-02T10:57:04.948Z,13.10
2023-03-02T10:59:42.639Z,15.00
2023-03-02T11:02:09.232Z,16.70
2023-03-02T11:04:48.799Z,10.30
2023-03-02T11:07:28.856Z,18.30
2023-03-02T11:10:03.724Z,15.40
2023-03-02T11:12:32.026Z,42.80
2023-03-02T11:15:14.113Z,17.60
2023-03-02T11:17:44.301Z,15.30
2023-03-02T11:20:32.066Z,14.00
2023-03-02T11:23:05.746Z,16.80
2023-03-02T11:25:37.692Z,16.10
2023-03-02T11:28:34.014Z,9.20
2023-03-02T11:31:10.079Z,10.60
2023-03-02T11:34:04.792Z,14.20
2023-03-02T11:37:06.263Z,15.40
2023-03-02T11:40:08.406Z,15.40
2023-03-02T11:42:45.450Z,17.00
2023-03-02T11:45:26.762Z,17.10
2023-03-02T11:48:03.472Z,13.00
2023-03-02T11:50:36.520Z,12.10
2023-03-02T11:53:07.368Z,14.00
2023-03-02T11:55:42.180Z,15.80
2023-03-02T11:58:21.303Z,15.90
2023-03-02T12:00:49.417Z,16.40
2023-03-02T12:03:16.015Z,15.10
2023-03-02T12:05:58.270Z,16.40
2023-03-02T12:08:25.068Z,15.40
2023-03-02T12:11:18.250Z,16.70
2023-03-02T12:13:54.298Z,16.00
2023-03-02T12:16:42.712Z,21.60
2023-03-02T12:19:13.654Z,19.00
2023-03-02T12:22:06.369Z,17.20
2023-03-02T12:25:01.796Z,14.20
2023-03-02T12:27:36.292Z,14.80
2023-03-02T12:30:15.703Z,11.40
2023-03-02T12:33:01.223Z,17.20
2023-03-02T12:35:31.710Z,14.30
2023-03-02T12:38:02.329Z,15.20
2023-03-02T12:43:19.850Z,15.60
2023-03-02T12:45:55.694Z,15.30
2023-03-02T12:48:44.474Z,14.30
2023-03-02T12:51:21.568Z,15.00
2023-03-02T12:54:00.741Z,14.20
2023-03-02T12:56:27.320Z,15.00
2023-03-02T12:58:54.460Z,16.80
2023-03-02T13:01:28.532Z,16.60
2023-03-02T13:03:58.489Z,15.10
2023-03-02T13:06:34.405Z,14.50
2023-03-02T13:09:01.549Z,14.50
2023-03-02T13:11:34.531Z,14.10
2023-03-02T13:14:03.058Z,13.50
2023-03-02T13:16:36.132Z,18.70
2023-03-02T13:19:12.023Z,16.20
2023-03-02T13:21:39.254Z,14.30
2023-03-02T13:24:46.034Z,15.50
2023-03-02T13:27:18.041Z,18.20
2023-03-02T13:29:45.249Z,16.80
2023-03-02T13:32:20.584Z,17.00
2023-03-02T13:34:54.605Z,10.70
2023-03-02T13:37:22.768Z,13.50
2023-03-02T13:39:58.011Z,12.80
2023-03-02T13:42:35.767Z,15.00
2023-03-02T13:45:29.156Z,15.90
2023-03-02T13:47:58.236Z,15.10
2023-03-02T13:50:31.434Z,15.10
2023-03-02T13:53:04.826Z,14.00
2023-03-02T13:55:32.726Z,12.70
2023-03-02T13:58:27.484Z,12.20
2023-03-02T14:00:57.911Z,13.30
2023-03-02T14:03:29.494Z,12.20
2023-03-02T14:05:58.130Z,13.40
2023-03-02T14:08:25.413Z,13.00
2023-03-02T14:10:57.892Z,17.10
2023-03-02T14:13:54.511Z,14.40
2023-03-02T14:16:21.515Z,15.90
2023-03-02T14:18:52.003Z,14.60
2023-03-02T14:23:47.712Z,14.70
2023-03-02T14:26:43.426Z,13.30
2023-03-02T14:29:18.868Z,15.30
2023-03-02T14:31:49.057Z,17.40
2023-03-02T14:34:17.223Z,14.90
2023-03-02T14:36:51.738Z,15.70
2023-03-02T14:39:27.742Z,15.50
2023-03-02T14:41:55.440Z,15.10
2023-03-02T14:44:22.793Z,15.50
2023-03-02T14:46:49.648Z,15.40
2023-03-02T14:49:16.201Z,15.70
2023-03-02T14:51:55.541Z,15.30
2023-03-02T14:54:22.292Z,15.10
2023-03-02T14:56:50.468Z,13.80
2023-03-02T14:59:18.038Z,14.70
2023-03-02T15:01:44.936Z,15.10
2023-03-02T15:04:11.685Z,17.40
2023-03-02T15:06:40.834Z,13.20
2023-03-02T15:09:10.809Z,13.80
2023-03-02T15:11:37.572Z,14.30
2023-03-02T15:14:04.292Z,18.70
2023-03-02T15:16:31.053Z,15.40
2023-03-02T15:18:58.889Z,15.40
2023-03-02T15:21:25.853Z,13.80
2023-03-02T15:23:52.555Z,14.90
2023-03-02T15:26:19.321Z,14.50
2023-03-02T15:28:51.243Z,13.40
2023-03-02T15:31:18.999Z,14.90
2023-03-02T15:33:46.233Z,13.80
2023-03-02T15:36:16.227Z,15.40
2023-03-02T15:38:42.862Z,19.10
2023-03-02T15:41:14.759Z,22.10
2023-03-02T15:43:41.766Z,24.90
2023-03-02T15:46:08.830Z,16.10
2023-03-02T15:48:36.388Z,14.90
2023-03-02T15:51:05.657Z,15.90
2023-03-02T15:53:37.633Z,14.60
2023-03-02T15:56:15.577Z,15.10
2023-03-02T15:58:49.282Z,15.00
2023-03-02T16:01:16.598Z,15.10
2023-03-02T16:03:44.945Z,15.90
2023-03-02T16:06:15.379Z,15.00
2023-03-02T16:08:49.263Z,14.00
2023-03-02T16:11:18.901Z,16.10
2023-03-02T16:13:48.738Z,17.00
2023-03-02T16:16:15.531Z,15.60
2023-03-02T16:18:42.237Z,17.00
2023-03-02T16:21:12.750Z,15.50
2023-03-02T16:23:42.040Z,16.20
2023-03-02T16:26:11.226Z,16.80
2023-03-02T16:28:38.287Z,15.50
2023-03-02T16:31:14.816Z,20.80
2023-03-02T16:33:44.020Z,19.80
2023-03-02T16:36:14.350Z,17.30
2023-03-02T16:38:41.528Z,19.40
2023-03-02T16:41:19.918Z,29.90
2023-03-02T16:43:52.906Z,28.70
2023-03-02T16:46:21.606Z,23.00
2023-03-02T16:48:50.445Z,21.00
2023-03-02T16:51:18.090Z,17.60
2023-03-02T16:53:45.088Z,17.80
2023-03-02T16:56:13.914Z,17.60
2023-03-02T16:58:41.196Z,17.30
2023-03-02T17:01:14.963Z,17.30
2023-03-02T17:03:42.471Z,16.30
2023-03-02T17:06:11.576Z,15.20
2023-03-02T17:08:39.073Z,16.30
2023-03-02T17:11:07.061Z,15.80
2023-03-02T17:13:34.724Z,15.60
2023-03-02T17:16:04.220Z,15.30
2023-03-02T17:18:32.383Z,14.50
2023-03-02T17:21:00.158Z,15.00
2023-03-02T17:23:27.280Z,15.50
2023-03-02T17:25:55.034Z,17.60
2023-03-02T17:28:22.045Z,17.40
2023-03-02T17:30:49.003Z,18.50
2023-03-02T17:33:16.579Z,18.30
2023-03-02T17:35:45.463Z,18.90
2023-03-02T17:38:12.182Z,18.80
2023-03-02T17:40:39.315Z,18.70
2023-03-02T17:43:12.254Z,18.90
2023-03-02T17:45:39.461Z,19.40
2023-03-02T17:48:06.688Z,19.80
2023-03-02T17:50:34.060Z,19.50
2023-03-02T17:53:02.376Z,19.80
2023-03-02T17:55:29.348Z,19.00
2023-03-02T17:57:56.084Z,18.90
2023-03-02T18:00:23.571Z,18.80
2023-03-02T18:02:50.809Z,20.10
2023-03-02T18:05:17.828Z,21.80
2023-03-02T18:07:44.517Z,24.20
2023-03-02T18:10:13.238Z,26.20
2023-03-02T18:12:39.881Z,26.70
2023-03-02T18:15:07.277Z,29.90
2023-03-02T18:17:34.082Z,35.00
2023-03-02T18:20:00.760Z,34.40
2023-03-02T18:22:27.429Z,36.60
2023-03-02T18:24:53.924Z,35.50
2023-03-02T18:27:20.694Z,34.80
2023-03-02T18:29:47.396Z,52.10
2023-03-02T18:32:14.452Z,46.60
2023-03-02T18:34:41.538Z,59.30
2023-03-02T18:37:08.384Z,60.40
2023-03-02T18:39:37.121Z,57.70
2023-03-02T18:42:04.947Z,71.50
2023-03-02T18:44:31.657Z,122.50
2023-03-02T18:46:58.752Z,107.40
2023-03-02T18:49:26.657Z,121.70
2023-03-02T18:51:56.263Z,102.60
2023-03-02T18:54:25.550Z,95.30
2023-03-02T18:56:52.415Z,96.60
2023-03-02T18:59:19.776Z,90.10
2023-03-02T19:01:46.854Z,92.10
2023-03-02T19:04:14.590Z,86.50
2023-03-02T19:06:43.058Z,92.10
2023-03-02T19:09:12.252Z,87.70
2023-03-02T19:11:39.011Z,85.90
2023-03-02T19:14:05.695Z,94.00
2023-03-02T19:16:32.486Z,88.30
2023-03-02T19:18:59.332Z,84.60
2023-03-02T19:21:26.060Z,91.40
2023-03-02T19:23:52.777Z,81.30
2023-03-02T19:26:19.672Z,86.30
2023-03-02T19:28:46.466Z,90.80
2023-03-02T19:31:13.536Z,90.40
2023-03-02T19:33:41.769Z,89.00
2023-03-02T19:36:09.341Z,83.20
2023-03-02T19:38:40.041Z,91.20
2023-03-02T19:43:34.791Z,99.00
2023-03-02T19:46:02.153Z,95.00
2023-03-02T19:48:29.274Z,89.80
2023-03-02T19:50:56.171Z,90.20
2023-03-02T19:53:22.924Z,89.80
2023-03-02T19:55:52.023Z,90.00
2023-03-02T19:58:20.268Z,86.70
2023-03-02T20:00:49.229Z,80.00
2023-03-02T20:03:16.252Z,76.80
2023-03-02T20:05:43.226Z,68.10
2023-03-02T20:08:16.186Z,69.50
2023-03-02T20:10:45.948Z,68.70
2023-03-02T20:13:12.999Z,63.60
2023-03-02T20:15:44.081Z,64.40
2023-03-02T20:18:15.128Z,57.40
2023-03-02T20:20:42.434Z,62.50
2023-03-02T20:23:09.393Z,60.40
2023-03-02T20:25:37.970Z,62.50
2023-03-02T20:28:06.995Z,56.00
2023-03-02T20:30:42.093Z,54.10
2023-03-02T20:33:13.610Z,57.90
2023-03-02T20:35:43.750Z,60.30
2023-03-02T20:38:17.716Z,59.60
2023-03-02T20:40:45.383Z,57.80
2023-03-02T20:43:12.446Z,58.90
2023-03-02T20:45:40.786Z,61.90
2023-03-02T20:48:07.739Z,58.20
2023-03-02T20:50:35.705Z,57.60
2023-03-02T20:53:03.998Z,70.20
2023-03-02T20:55:32.707Z,65.20
2023-03-02T20:58:01.598Z,61.90
2023-03-02T21:00:32.361Z,61.40
2023-03-02T21:05:27.727Z,55.40
2023-03-02T21:07:55.120Z,59.00
2023-03-02T21:10:27.290Z,60.40
2023-03-02T21:12:54.916Z,63.30
2023-03-02T21:15:24.199Z,57.90
2023-03-02T21:17:54.358Z,61.60
2023-03-02T21:20:22.930Z,58.10
2023-03-02T21:22:50.068Z,58.10
2023-03-02T21:25:17.842Z,53.40
2023-03-02T21:27:44.968Z,44.90
2023-03-02T21:30:21.775Z,47.00
2023-03-02T21:32:51.059Z,51.10
2023-03-02T21:35:23.016Z,48.50
2023-03-02T21:37:53.602Z,48.50
2023-03-02T21:40:27.401Z,47.50
2023-03-02T21:42:56.884Z,55.80
2023-03-02T21:45:24.329Z,56.30
2023-03-02T21:47:51.431Z,54.50
2023-03-02T21:50:24.266Z,53.60
2023-03-02T21:52:51.464Z,55.80
2023-03-02T21:55:18.944Z,65.80
2023-03-02T21:57:45.859Z,59.00
2023-03-02T22:00:28.702Z,63.50
2023-03-02T22:02:56.538Z,66.10
2023-03-02T22:05:24.198Z,60.00
2023-03-02T22:07:51.453Z,66.80
2023-03-02T22:10:28.875Z,66.20
2023-03-02T22:13:14.229Z,64.80
2023-03-02T22:15:41.346Z,58.20
2023-03-02T22:18:13.814Z,62.20
2023-03-02T22:20:47.632Z,59.80
2023-03-02T22:23:18.962Z,58.60
2023-03-02T22:25:48.321Z,63.60
2023-03-02T22:28:40.227Z,59.00
2023-03-02T22:31:23.718Z,61.90
2023-03-02T22:33:53.522Z,61.20
2023-03-02T22:36:24.194Z,62.20
2023-03-02T22:38:52.080Z,59.50
2023-03-02T22:41:19.874Z,62.70
2023-03-02T22:43:48.988Z,68.40
2023-03-02T22:46:21.426Z,65.80
2023-03-02T22:48:55.247Z,66.90
2023-03-02T22:51:27.361Z,71.20
2023-03-02T22:53:59.382Z,66.20
2023-03-02T22:56:30.374Z,69.50
2023-03-02T22:59:14.694Z,66.90
2023-03-02T23:01:44.261Z,65.80
2023-03-02T23:04:19.091Z,63.40
2023-03-02T23:06:59.552Z,63.20
2023-03-02T23:09:29.919Z,61.60
2023-03-02T23:11:59.734Z,61.50
2023-03-02T23:14:34.682Z,60.90
2023-03-02T23:17:12.861Z,57.00
2023-03-02T23:19:39.812Z,63.20
2023-03-02T23:22:06.834Z,62.00
2023-03-02T23:24:33.848Z,61.80
2023-03-02T23:27:00.811Z,64.20
2023-03-02T23:29:27.800Z,63.10
2023-03-02T23:31:55.129Z,62.80
2023-03-02T23:34:23.066Z,65.60
2023-03-02T23:36:49.930Z,63.10
2023-03-02T23:39:17.095Z,65.10
2023-03-02T23:41:43.958Z,62.00
2023-03-02T23:44:11.101Z,61.80
2023-03-02T23:46:38.590Z,60.40
2023-03-02T23:49:05.858Z,58.50
2023-03-02T23:51:32.989Z,57.60
2023-03-02T23:54:00.227Z,55.60
2023-03-02T23:56:27.276Z,56.80
2023-03-02T23:58:56.446Z,60.90
